createdAt,value
2022-10-31T00:04:59.500Z,101363.63
2022-10-31T00:12:01.060Z,101364.81
2022-10-31T00:19:03.942Z,101366.94
2022-10-31T00:26:06.188Z,101374.09
2022-10-31T00:33:07.759Z,101376.97
2022-10-31T00:40:10.097Z,101380.16
2022-10-31T00:47:11.652Z,101385.06
2022-10-31T00:54:13.609Z,101398.91
2022-10-31T01:01:15.304Z,101389.19
2022-10-31T01:08:17.018Z,101395.50
2022-10-31T01:15:21.235Z,101400.91
2022-10-31T01:22:22.812Z,101406.88
2022-10-31T01:29:25.761Z,101409.66
2022-10-31T01:36:31.837Z,101408.78
2022-10-31T01:44:02.193Z,101411.66
2022-10-31T01:51:05.816Z,101409.28
2022-10-31T01:58:13.006Z,101399.88
2022-10-31T02:05:17.391Z,101418.16
2022-10-31T02:12:18.978Z,101410.41
2022-10-31T02:19:50.878Z,101413.38
2022-10-31T02:26:54.077Z,101411.78
2022-10-31T02:33:59.010Z,101415.56
2022-10-31T02:41:20.818Z,101417.50
2022-10-31T02:48:29.939Z,101411.47
2022-10-31T02:55:31.396Z,101420.66
2022-10-31T03:02:40.936Z,101425.44
2022-10-31T03:09:56.367Z,101437.16
2022-10-31T03:16:58.014Z,101434.53
2022-10-31T03:23:59.699Z,101445.34
2022-10-31T03:31:03.503Z,101450.94
2022-10-31T03:38:08.269Z,101452.94
2022-10-31T03:45:12.271Z,101464.91
2022-10-31T03:52:33.286Z,101470.59
2022-10-31T03:59:44.177Z,101473.28
2022-10-31T04:06:45.950Z,101470.31
2022-10-31T04:13:47.526Z,101470.66
2022-10-31T04:21:06.405Z,101485.25
2022-10-31T04:28:08.020Z,101479.94
2022-10-31T04:35:09.796Z,101494.31
2022-10-31T04:42:12.485Z,101496.25
2022-10-31T04:49:14.452Z,101494.41
2022-10-31T04:56:16.276Z,101496.25
2022-10-31T05:03:21.499Z,101498.66
2022-10-31T05:10:24.693Z,101496.78
2022-10-31T05:17:27.090Z,101499.19
2022-10-31T05:24:51.871Z,101504.47
2022-10-31T05:31:53.888Z,101506.13
2022-10-31T05:39:15.469Z,101515.00
2022-10-31T05:46:21.225Z,101515.91
2022-10-31T05:53:48.803Z,101525.75
2022-10-31T06:00:51.648Z,101529.34
2022-10-31T06:07:53.871Z,101528.47
2022-10-31T06:14:55.524Z,101532.13
2022-10-31T06:21:57.262Z,101536.50
2022-10-31T06:29:03.023Z,101536.22
2022-10-31T06:43:32.535Z,101559.19
2022-10-31T06:51:06.516Z,101568.03
2022-10-31T06:58:10.240Z,101572.56
2022-10-31T07:05:14.151Z,101572.03
2022-10-31T07:12:16.670Z,101584.91
2022-10-31T07:19:26.635Z,101584.56
2022-10-31T07:26:29.297Z,101590.81
2022-10-31T07:33:31.093Z,101593.31
2022-10-31T07:40:52.629Z,101597.66
2022-10-31T07:47:54.630Z,101605.75
2022-10-31T07:55:16.491Z,101602.41
2022-10-31T08:02:23.129Z,101614.41
2022-10-31T08:09:56.775Z,101624.50
2022-10-31T08:17:02.005Z,101623.53
2022-10-31T08:24:12.484Z,101623.53
2022-10-31T08:31:15.825Z,101629.41
2022-10-31T08:38:37.692Z,101637.56
2022-10-31T08:45:40.480Z,101640.88
2022-10-31T08:53:04.062Z,101625.81
2022-10-31T09:00:08.578Z,101619.78
2022-10-31T09:07:27.573Z,101629.25
2022-10-31T09:14:29.698Z,101645.00
2022-10-31T09:21:57.925Z,101646.03
2022-10-31T09:28:59.493Z,101650.59
2022-10-31T09:36:01.178Z,101655.78
2022-10-31T09:43:21.485Z,101655.50
2022-10-31T09:50:27.113Z,101663.25
2022-10-31T09:57:31.008Z,101670.59
2022-10-31T10:04:41.592Z,101665.78
2022-10-31T10:12:10.689Z,101661.03
2022-10-31T10:19:50.607Z,101646.88
2022-10-31T10:26:59.475Z,101644.94
2022-10-31T10:34:12.787Z,101641.00
2022-10-31T10:41:17.541Z,101632.06
2022-10-31T10:48:34.104Z,101625.22
2022-10-31T10:55:46.417Z,101619.72
2022-10-31T11:02:49.201Z,101618.06
2022-10-31T11:09:51.138Z,101620.59
2022-10-31T11:17:08.423Z,101617.56
2022-10-31T11:24:10.294Z,101607.69
2022-10-31T11:31:14.164Z,101597.81
2022-10-31T11:38:20.402Z,101593.09
2022-10-31T11:45:24.881Z,101596.31
2022-10-31T11:52:27.977Z,101585.31
2022-10-31T11:59:31.212Z,101594.09
2022-10-31T12:06:37.615Z,101598.09
2022-10-31T12:13:52.641Z,101581.44
2022-10-31T12:21:26.541Z,101589.94
2022-10-31T12:28:54.110Z,101584.59
2022-10-31T12:36:15.424Z,101579.22
2022-10-31T12:43:27.944Z,101568.47
2022-10-31T12:51:07.034Z,101563.47
2022-10-31T12:58:11.939Z,101566.72
2022-10-31T13:05:34.218Z,101558.69
2022-10-31T13:12:37.486Z,101548.78
2022-10-31T13:19:41.492Z,101546.66
2022-10-31T13:26:51.269Z,101542.94
2022-10-31T13:33:55.580Z,101543.56
2022-10-31T13:41:01.309Z,101539.47
2022-10-31T13:48:33.800Z,101530.53
2022-10-31T13:55:39.902Z,101522.94
2022-10-31T14:02:46.588Z,101523.44
2022-10-31T14:09:56.664Z,101520.59
2022-10-31T14:16:58.309Z,101514.41
2022-10-31T14:23:59.895Z,101507.56
2022-10-31T14:31:01.511Z,101499.88
2022-10-31T14:38:15.544Z,101500.22
2022-10-31T14:45:41.164Z,101498.09
2022-10-31T14:52:44.003Z,101491.59
2022-10-31T14:59:49.877Z,101499.09
2022-10-31T15:07:03.905Z,101486.00
2022-10-31T15:14:22.005Z,101491.53
2022-10-31T15:21:24.455Z,101480.13
2022-10-31T15:28:26.390Z,101480.75
2022-10-31T15:35:29.537Z,101477.78
2022-10-31T15:42:36.807Z,101486.66
2022-10-31T15:49:42.484Z,101473.75
2022-10-31T15:56:44.117Z,101475.06
2022-10-31T16:03:45.662Z,101485.63
2022-10-31T16:10:47.216Z,101483.19
2022-10-31T16:17:50.160Z,101489.94
2022-10-31T16:24:55.470Z,101492.34
2022-10-31T16:31:57.058Z,101489.06
2022-10-31T16:38:59.087Z,101492.59
2022-10-31T16:46:00.665Z,101487.84
2022-10-31T16:53:17.692Z,101476.00
2022-10-31T17:00:23.642Z,101478.41
2022-10-31T17:07:25.213Z,101478.41
2022-10-31T17:14:26.835Z,101469.78
2022-10-31T17:21:28.780Z,101469.78
2022-10-31T17:28:30.326Z,101476.81
2022-10-31T17:35:31.921Z,101467.47
2022-10-31T17:42:33.540Z,101462.66
2022-10-31T17:49:35.100Z,101449.69
2022-10-31T17:56:36.667Z,101450.28
2022-10-31T18:03:38.516Z,101453.63
2022-10-31T18:10:40.072Z,101462.06
2022-10-31T18:17:42.359Z,101457.16
2022-10-31T18:24:44.086Z,101449.34
2022-10-31T18:31:48.420Z,101455.06
2022-10-31T18:38:50.054Z,101438.28
2022-10-31T18:45:56.705Z,101433.19
2022-10-31T18:52:59.754Z,101430.66
2022-10-31T19:00:01.604Z,101432.59
2022-10-31T19:07:03.199Z,101420.53
2022-10-31T19:14:05.539Z,101424.41
2022-10-31T19:21:08.141Z,101420.16
2022-10-31T19:28:09.755Z,101405.81
2022-10-31T19:35:11.522Z,101396.31
2022-10-31T19:42:13.201Z,101395.66
2022-10-31T19:49:14.773Z,101390.53
2022-10-31T19:56:17.740Z,101394.50
2022-10-31T20:03:21.620Z,101381.94
2022-10-31T20:10:25.142Z,101366.91
2022-10-31T20:17:26.776Z,101364.47
2022-10-31T20:24:31.814Z,101358.06
2022-10-31T20:31:35.836Z,101349.94
2022-10-31T20:38:38.974Z,101359.94
2022-10-31T20:45:40.535Z,101346.66
2022-10-31T20:52:42.092Z,101352.56
2022-10-31T20:59:43.637Z,101337.94
2022-10-31T21:06:49.233Z,101335.81
2022-10-31T21:13:51.288Z,101332.16
2022-10-31T21:20:52.870Z,101325.53
2022-10-31T21:27:54.418Z,101331.84
2022-10-31T21:34:55.996Z,101326.63
2022-10-31T21:41:57.545Z,101301.53
2022-10-31T21:48:59.198Z,101294.81
2022-10-31T21:56:04.215Z,101286.94
2022-10-31T22:03:05.791Z,101280.84
2022-10-31T22:10:07.746Z,101273.88
2022-10-31T22:17:09.470Z,101272.16
2022-10-31T22:24:11.166Z,101265.97
2022-10-31T22:31:13.842Z,101274.19
2022-10-31T22:38:15.433Z,101273.44
2022-10-31T22:45:17.154Z,101275.59
2022-10-31T22:52:18.751Z,101260.97
2022-10-31T22:59:20.607Z,101240.53
2022-10-31T23:06:24.385Z,101225.34
2022-10-31T23:13:44.506Z,101220.41
2022-10-31T23:20:53.566Z,101211.28
2022-10-31T23:27:55.125Z,101207.69
2022-10-31T23:34:58.302Z,101193.19
2022-10-31T23:41:59.970Z,101196.09
2022-10-31T23:49:01.577Z,101178.19
2022-10-31T23:56:03.202Z,101164.22
